West Descanso (73, 78, 625) Station Data

Red Flag Warning: Yes
Fire Weather Zone: 258
SDGE Region: Mountain Empire
Lat/Lon: 32.849/-116.63

Observations

Time Wind Speed/Gust Temp(F) RH Fuel Moist Fuel Temp(F) Dewpt(F) Tmax(F) Tmin(F) Accum Precip 10-min Precip SL Press(mb)
6/27 4:50pm 288 3 G 9 84° 14% - - 30° 90° 70° - - -
6/27 4:40pm 268 3 G 9 84° 14% - - 29° 90° 70° - - -
6/27 4:30pm 274 3 G 8 85° 13% - - 30° 90° 70° - - -
6/27 4:20pm 288 3 G 9 85° 14% - - 31° 90° 70° - - -
6/27 4:10pm 272 4 G 9 85° 13% - - 29° 90° 70° - - -
6/27 4:00pm 272 4 G 12 84° 14% - - 31° 90° 70° - - -
6/27 3:50pm 295 3 G 8 85° 15% - - 32° 90° 70° - - -
6/27 3:40pm 278 3 G 9 86° 13% - - 30° 90° 70° - - -
6/27 3:30pm 300 3 G 9 86° 13% - - 30° 90° 70° - - -
6/27 3:20pm 276 3 G 7 87° 13% - - 30° 90° 70° - - -
6/27 3:10pm 311 3 G 8 87° 14% - - 31° 90° 70° - - -
6/27 3:00pm 286 4 G 9 86° 13% - - 30° 90° 70° - - -
6/27 2:50pm 279 3 G 10 87° 15% - - 33° 90° 70° - - -
6/27 2:40pm 289 4 G 12 86° 15% - - 33° 90° 70° - - -
6/27 2:30pm 295 4 G 9 87° 15% - - 34° 90° 70° - - -
6/27 2:20pm 280 4 G 11 87° 14% - - 32° 90° 70° - - -
6/27 2:10pm 317 3 G 10 88° 14% - - 34° 90° 70° - - -
6/27 2:00pm 303 3 G 12 89° 13% - - 32° 90° 70° - - -
6/27 1:50pm 292 3 G 9 89° 11% - - 29° 90° 70° - - -
6/27 1:40pm 280 3 G 10 88° 11% - - 26° 89.8° 70° - - -
6/27 1:30pm 280 4 G 10 88° 10% - - 26° 89.2° 70° - - -
6/27 1:20pm 289 3 G 11 89° 10% - - 26° 89.2° 70° - - -
6/27 1:10pm 294 4 G 9 88° 10% - - 26° 89.2° 70° - - -
6/27 1:00pm 288 4 G 10 87° 10% - - 24° 88.6° 70° - - -
6/27 12:50pm 290 4 G 9 88° 10% - - 24° 88.6° 70° - - -
6/27 12:40pm 285 4 G 9 88° 9% - - 23° 88.6° 70° - - -
6/27 12:30pm 275 4 G 10 88° 9% - - 23° 88.5° 70° - - -
6/27 12:20pm 292 4 G 11 87° 10% - - 23° 88.5° 70° - - -
6/27 12:10pm 286 4 G 10 87° 10% - - 23° 88.5° 70° - - -
6/27 12:00pm 278 4 G 12 88° 9% - - 23° 88.5° 70° - - -
6/27 11:50am 292 3 G 11 87° 10% - - 24° 88.5° 70° - - -
6/27 11:40am 292 5 G 9 87° 10% - - 23° 88.2° 70° - - -
6/27 11:30am 306 5 G 11 87° 10% - - 23° 88.2° 70° - - -
6/27 11:20am 297 4 G 12 87° 10% - - 24° 88.2° 70° - - -
6/27 11:10am 299 4 G 9 86° 10% - - 23° 86.9° 70° - - -
6/27 11:00am 290 3 G 8 86° 10% - - 22° 86.8° 70° - - -
6/27 10:50am 305 4 G 10 86° 10% - - 22° 86.2° 70° - - -
6/27 10:40am 317 4 G 10 86° 10% - - 24° 86.2° 70° - - -
6/27 10:30am 330 4 G 11 84° 10% - - 22° 86.1° 70° - - -
6/27 10:20am 312 5 G 10 85° 10% - - 23° 86.1° 70° - - -
6/27 10:10am 318 4 G 12 86° 10% - - 23° 86.1° 70° - - -
6/27 10:00am 334 4 G 10 84° 11% - - 23° 85.6° 70° - - -
6/27 9:50am 0 5 G 9 83° 11% - - 22° 83.9° 70° - - -
6/27 9:40am 348 6 G 12 83° 10% - - 22° 83.9° 70° - - -
6/27 9:30am 349 5 G 10 83° 10% - - 21° 83.9° 70° - - -
6/27 9:20am 337 4 G 9 84° 10% - - 21° 83.9° 70° - - -
6/27 9:10am 331 4 G 9 83° 10% - - 21° 83.8° 70° - - -
6/27 9:00am 340 4 G 9 83° 10% - - 21° 83.5° 70° - - -
6/27 8:50am 6 3 G 9 82° 11% - - 22° 82.8° 70° - - -
6/27 8:40am 28 3 G 6 81° 13% - - 25° 82.1° 70° - - -
6/27 8:30am 59 2 G 5 81° 13% - - 25° 81.3° 70° - - -
6/27 8:20am 76 3 G 5 79° 13% - - 24° 80° 70° - - -
6/27 8:10am 30 4 G 6 82° 9% - - 17° 82.6° 77° - - -
6/27 8:00am 45 2 G 4 78° 13% - - 22° 78.5° 70° - - -
6/27 7:50am 29 2 G 4 77° 13% - - 22° 77.5° 70° - - -
6/27 7:40am 40 2 G 4 76° 13% - - 22° 77° 70° - - -
6/27 7:30am 39 2 G 4 75° 14% - - 22° 77° 70° - - -
6/27 7:20am 38 2 G 5 75° 13% - - 21° 77° 70° - - -
6/27 7:10am 15 2 G 3 74° 13% - - 21° 77° 70° - - -
6/27 7:00am 40 2 G 4 74° 13% - - 20° 77° 70° - - -
6/27 6:50am 20 2 G 5 74° 13% - - 20° 77° 70° - - -
6/27 6:40am 31 1 G 3 74° 13% - - 20° 77° 70° - - -
6/27 6:30am 343 2 G 5 72° 13% - - 19° 77° 70° - - -
6/27 6:20am 37 1 G 4 73° 13% - - 19° 77° 70° - - -
6/27 6:10am 30 1 G 4 72° 13% - - 19° 77° 70° - - -
6/27 6:00am 35 2 G 4 71° 13% - - 18° 77° 70° - - -
6/27 5:50am 5 2 G 4 71° 13% - - 18° 77° 70° - - -
6/27 5:40am 358 2 G 4 71° 14% - - 19° 77° 70° - - -
6/27 5:30am 13 2 G 5 71° 13% - - 18° 77° 70.2° - - -
6/27 5:20am 2 2 G 4 72° 13% - - 18° 77° 70.7° - - -
6/27 5:10am 13 2 G 3 74° 12% - - 18° 77° 72.9° - - -
6/27 5:00am 340 3 G 4 75° 11% - - 18° 77° 74.1° - - -
6/27 4:50am 325 4 G 6 76° 11% - - 18° 77° 74.1° - - -
6/27 4:40am 306 4 G 6 76° 11% - - 18° 77° 74.1° - - -
6/27 4:30am 307 4 G 7 76° 11% - - 18° 77° 74.1° - - -
6/27 4:20am 303 4 G 5 76° 11% - - 18° 77° 74.1° - - -
6/27 4:10am 300 4 G 6 75° 11% - - 18° 77° 74.1° - - -
6/27 4:00am 300 4 G 5 75° 11% - - 18° 77° 74.1° - - -
6/27 3:50am 301 4 G 6 75° 11% - - 18° 77° 74.1° - - -
6/27 3:40am 302 4 G 6 75° 12% - - 18° 77° 74.1° - - -
6/27 3:30am 299 4 G 7 75° 12% - - 18° 77° 74.1° - - -
6/27 3:20am 300 4 G 7 75° 12% - - 19° 77° 74.1° - - -
6/27 3:10am 299 4 G 6 74° 12% - - 19° 77° 74.1° - - -
6/27 3:00am 301 4 G 8 75° 12% - - 19° 77° 74.1° - - -
6/27 2:50am 294 4 G 7 75° 12% - - 19° 77° 74.1° - - -
6/27 2:40am 295 4 G 8 75° 12% - - 19° 77° 74.3° - - -
6/27 2:30am 292 4 G 7 75° 12% - - 19° 77° 74.3° - - -
6/27 2:20am 291 4 G 8 75° 12% - - 19° 77° 74.3° - - -
6/27 2:10am 289 4 G 6 75° 12% - - 19° 77° 74.3° - - -
6/27 2:00am 287 4 G 7 75° 12% - - 19° 77° 74.3° - - -
6/27 1:50am 290 4 G 8 75° 12% - - 19° 77° 74.3° - - -
6/27 1:40am 284 4 G 6 75° 12% - - 18° 77° 74.3° - - -
6/27 1:30am 281 4 G 6 75° 11% - - 18° 77° 74.3° - - -
6/27 1:20am 306 3 G 5 75° 11% - - 17° 77° 74.4° - - -
6/27 1:10am 310 3 G 7 75° 11% - - 18° 77° 74.9° - - -
6/27 1:00am 294 4 G 8 76° 10% - - 16° 77° 75.6° - - -
6/27 12:50am 282 5 G 10 76° 9% - - 14° 77° 75.9° - - -
6/27 12:40am 274 4 G 9 76° 8% - - 11° 77° 76° - - -
6/27 12:30am 272 5 G 9 76° 8% - - 11° 77° 76° - - -
6/27 12:20am 275 5 G 10 77° 8% - - 11° 77° 76.4° - - -
6/27 12:10am 272 6 G 11 77° 8% - - 11° 77° 76.5° - - -
6/27 12:00am 274 6 G 12 77° 9% - - 13° 94° 74.5° - - -
6/26 11:50pm 269 5 G 12 76° 9% - - 14° 94° 74.5° - - -
6/26 11:40pm 269 5 G 9 76° 9% - - 14° 94° 74.5° - - -
6/26 11:30pm 275 5 G 12 77° 9% - - 15° 94° 74.5° - - -
6/26 11:20pm 279 5 G 9 76° 10% - - 15° 94° 74.5° - - -
6/26 11:10pm 278 5 G 8 76° 9% - - 15° 94° 74.5° - - -
6/26 11:00pm 278 4 G 8 76° 9% - - 14° 94° 74.5° - - -
6/26 10:50pm 277 4 G 7 76° 10% - - 15° 94° 74.5° - - -
6/26 10:40pm 280 3 G 5 75° 10% - - 15° 94° 74.5° - - -
6/26 10:30pm 292 3 G 6 76° 10% - - 16° 94° 74.5° - - -
6/26 10:20pm 310 2 G 5 76° 11% - - 18° 94° 74.5° - - -
6/26 10:10pm 13 1 G 2 75° 12% - - 19° 94° 74.5° - - -
6/26 10:00pm 9 1 G 2 75° 13% - - 20° 94° 74.5° - - -
6/26 9:50pm 15 1 G 3 75° 13% - - 21° 94° 74.5° - - -
6/26 9:40pm 29 1 G 4 75° 13% - - 21° 94° 74.7° - - -
6/26 9:30pm 5 2 G 3 75° 13% - - 22° 94° 74.8° - - -
6/26 9:20pm 342 2 G 3 76° 13% - - 21° 94° 75.3° - - -
6/26 9:10pm 334 3 G 5 76° 13% - - 21° 94° 75.3° - - -
6/26 9:00pm 319 2 G 4 76° 13% - - 21° 94° 75.3° - - -
6/26 8:50pm 306 3 G 6 77° 12% - - 21° 94° 75.3° - - -
6/26 8:40pm 294 2 G 5 77° 13% - - 21° 94° 75.3° - - -
6/26 8:30pm 298 3 G 6 77° 13% - - 22° 94° 75.3° - - -
6/26 8:20pm 300 3 G 6 77° 13% - - 22° 94° 75.3° - - -
6/26 8:10pm 294 3 G 5 77° 13% - - 22° 94° 75.3° - - -
6/26 8:00pm 302 3 G 6 77° 13% - - 24° 94° 75.3° - - -
6/26 7:50pm 311 3 G 6 78° 15% - - 26° 94° 75.3° - - -
6/26 7:40pm 314 2 G 5 79° 16% - - 29° 94° 75.3° - - -
6/26 7:30pm 310 2 G 7 80° 15% - - 27° 94° 75.3° - - -
6/26 7:20pm 321 2 G 6 81° 14% - - 27° 94° 75.3° - - -
6/26 7:10pm 301 3 G 7 82° 12% - - 25° 94° 75.3° - - -
6/26 7:00pm 289 5 G 9 83° 11% - - 24° 94° 75.3° - - -
6/26 6:50pm 283 4 G 10 83° 11% - - 23° 94° 75.3° - - -
6/26 6:40pm 285 5 G 11 84° 11% - - 23° 94° 75.3° - - -
6/26 6:30pm 286 4 G 9 85° 10% - - 23° 94° 75.3° - - -
6/26 6:20pm 294 5 G 11 86° 10% - - 22° 94° 75.3° - - -
6/26 6:10pm 311 5 G 10 86° 10% - - 22° 94° 75.3° - - -
6/26 6:00pm 314 4 G 11 87° 9% - - 22° 94° 75.3° - - -
6/26 5:50pm 309 5 G 11 87° 9% - - 22° 94° 75.3° - - -
6/26 5:40pm 305 6 G 12 88° 9% - - 22° 94° 75.3° - - -
6/26 5:30pm 315 5 G 11 88° 9% - - 23° 94° 75.3° - - -
6/26 5:20pm 318 3 G 12 89° 10% - - 24° 94° 75.3° - - -
6/26 5:10pm 319 4 G 9 89° 9% - - 24° 94° 75.3° - - -
6/26 5:00pm 331 4 G 12 89° 9% - - 24° 94° 75.3° - - -
6/26 4:50pm 336 5 G 13 89° 9% - - 23° 94° 75.3° - - -
6/26 4:40pm 341 7 G 15 89° 9% - - 23° 94° 75.3° - - -
6/26 4:30pm 338 7 G 16 89° 9% - - 23° 94° 75.3° - - -
6/26 4:20pm 350 6 G 16 91° 9% - - 24° 94° 75.3° - - -
6/26 4:10pm 332 5 G 12 91° 9% - - 24° 94° 75.3° - - -
6/26 4:00pm 341 5 G 12 91° 9% - - 25° 94° 75.3° - - -
6/26 3:50pm 339 5 G 14 91° 10% - - 26° 94° 75.3° - - -
6/26 3:40pm 323 6 G 15 91° 10% - - 27° 94° 75.3° - - -
6/26 3:30pm 332 6 G 13 92° 10% - - 26° 94° 75.3° - - -
6/26 3:20pm 335 5 G 12 92° 10% - - 27° 94° 75.3° - - -
6/26 3:10pm 338 7 G 15 92° 10% - - 27° 94° 75.3° - - -
6/26 3:00pm 309 4 G 11 93° 11% - - 30° 94° 75.3° - - -
6/26 2:50pm 313 5 G 14 92° 11% - - 30° 94° 75.3° - - -
6/26 2:40pm 315 5 G 12 92° 12% - - 32° 94° 75.3° - - -
6/26 2:30pm 317 6 G 15 92° 12% - - 32° 94° 75.3° - - -
6/26 2:20pm 332 6 G 13 92° 12% - - 33° 94° 75.3° - - -
6/26 2:10pm 315 6 G 14 92° 11% - - 31° 94° 75.3° - - -
6/26 2:00pm 346 7 G 15 92° 12% - - 33° 94° 75.3° - - -
6/26 1:50pm 335 7 G 15 93° 11% - - 31° 94° 75.3° - - -
6/26 1:40pm 329 5 G 11 93° 11% - - 32° 94° 75.3° - - -
6/26 1:30pm 333 5 G 13 92° 11% - - 31° 93.7° 75.3° - - -
6/26 1:20pm 318 5 G 10 93° 11% - - 31° 93.7° 75.3° - - -
6/26 1:10pm 323 5 G 10 93° 11% - - 30° 93.7° 75.3° - - -
6/26 1:00pm 340 7 G 14 93° 10% - - 28° 93.7° 75.3° - - -
6/26 12:50pm 350 6 G 15 92° 11% - - 29° 93.4° 75.3° - - -
6/26 12:40pm 339 6 G 14 92° 10% - - 28° 93.4° 75.3° - - -
6/26 12:30pm 353 8 G 15 91° 10% - - 26° 93.4° 75.3° - - -
6/26 12:20pm 346 8 G 17 93° 9% - - 25° 93.4° 75.3° - - -
6/26 12:10pm 328 5 G 11 93° 9% - - 27° 93.3° 75.3° - - -
6/26 12:00pm 330 6 G 15 93° 9% - - 26° 93° 75.3° - - -
6/26 11:50am 337 6 G 14 92° 10% - - 28° 93° 75.3° - - -
6/26 11:40am 341 7 G 15 91° 10% - - 28° 92.4° 75.3° - - -
6/26 11:30am 353 6 G 15 92° 10% - - 28° 92.2° 75.3° - - -
6/26 11:20am 357 8 G 16 91° 10% - - 28° 91.6° 75.3° - - -
6/26 11:10am 357 9 G 16 91° 11% - - 28° 91.6° 75.3° - - -
6/26 11:00am 355 8 G 15 90° 11% - - 28° 91.3° 75.3° - - -
6/26 10:50am 346 8 G 16 90° 11% - - 28° 91.3° 75.3° - - -
6/26 10:40am 353 8 G 15 90° 11% - - 28° 91.3° 75.3° - - -
6/26 10:30am 356 7 G 14 90° 12% - - 30° 91.3° 75.3° - - -
6/26 10:20am 348 6 G 13 90° 11% - - 29° 91.3° 75.3° - - -
6/26 10:10am 354 5 G 12 91° 12% - - 30° 91.3° 75.3° - - -
6/26 10:00am 349 5 G 13 90° 12% - - 30° 91.1° 75.3° - - -
6/26 9:50am 351 5 G 11 90° 12% - - 31° 90.6° 75.3° - - -
6/26 9:40am 355 5 G 10 89° 13% - - 32° 90.4° 75.3° - - -
6/26 9:30am 348 4 G 7 90° 12% - - 30° 90.4° 75.3° - - -
6/26 9:20am 354 5 G 10 89° 12% - - 31° 89.7° 75.3° - - -
6/26 9:10am 356 4 G 9 89° 13% - - 31° 89.7° 75.3° - - -
6/26 9:00am 5 5 G 7 88° 13% - - 31° 88.7° 75.3° - - -
6/26 8:50am 15 5 G 9 88° 14% - - 33° 88.2° 75.3° - - -
6/26 8:40am 28 3 G 7 87° 16% - - 35° 87.4° 75.3° - - -
6/26 8:30am 44 3 G 4 85° 16% - - 34° 85.6° 75.3° - - -
6/26 8:20am 50 3 G 4 85° 16% - - 33° 85.1° 75.3° - - -
6/26 8:10am 55 3 G 4 84° 15% - - 31° 84.4° 75.3° - - -
6/26 8:00am 39 3 G 4 83° 15% - - 30° 83.5° 75.3° - - -
6/26 7:50am 30 2 G 4 82° 16% - - 31° 83.2° 75.3° - - -
6/26 7:40am 28 2 G 4 83° 16% - - 32° 83.2° 75.3° - - -
6/26 7:30am 20 2 G 3 82° 14% - - 28° 82.7° 75.3° - - -
6/26 7:20am 29 2 G 4 80° 14% - - 27° 80.8° 75.3° - - -
6/26 7:10am 14 2 G 3 78° 16% - - 28° 80.2° 75.3° - - -
6/26 7:00am 36 2 G 3 78° 16% - - 29° 80.2° 75.3° - - -
6/26 6:50am 38 2 G 3 79° 17% - - 30° 80.2° 75.3° - - -
6/26 6:40am 41 2 G 4 80° 19% - - 33° 80.2° 75.3° - - -
6/26 6:30am 17 3 G 4 80° 16% - - 29° 80.2° 75.3° - - -
6/26 6:20am 4 3 G 4 79° 14% - - 27° 80.2° 75.3° - - -
6/26 6:10am 4 3 G 4 79° 14% - - 26° 80.2° 75.3° - - -
6/26 6:00am 9 1 G 2 78° 15% - - 26° 80.2° 75.3° - - -